Shirahamamaru — JG4872 — position and weather

sailwx.info

Track history (hours):
 
Tides and Currents Weather Stations Pressure Air Temp Water Temp Dewpoint Dewpoint Depression Visibility Wind Speed Wind Dir Waves Ship Positions

Shirahamamaru

Last reported at 2016-Sep-25 11:10 UTC. Time now 2016-Sep-25 19:04 UTC.
Position N 35°13' E 139°43'.

Length 79 m; draft 3.2 m.

Type: Passenger vessel. MMSI: 431000239.

Date/timePositionNaut miles runAvg speedWind from/ knotsBaromVisibWave heightAir tempDewpointWater temp
2016-Sep-25 11:10N 35°13' E 139°43'6 9.5
2016-Sep-25 10:33N 35°10' E 139°49'4 3.5
2016-Sep-25 09:33N 35°13' E 139°46'1 0.4
2016-Sep-25 07:33N 35°13' E 139°45'1 0.5
2016-Sep-25 04:33N 35°12' E 139°47'1 0.2
2016-Sep-25 00:34N 35°12' E 139°47'1 0.5
2016-Sep-24 22:34N 35°12' E 139°46'2 1.5
2016-Sep-24 21:32N 35°13' E 139°44'5 0.4
2016-Sep-24 10:33N 35°10' E 139°49'3 3.3
2016-Sep-24 09:33N 35°12' E 139°46'0 0.0
2016-Sep-24 03:33N 35°12' E 139°46'1 1.1
2016-Sep-24 02:33N 35°11' E 139°47'2 2.1
2016-Sep-24 01:33N 35°13' E 139°45'2 2.2
2016-Sep-24 00:33N 35°12' E 139°47'1 0.1
2016-Sep-23 09:33N 35°12' E 139°46'1 0.4
2016-Sep-23 06:33N 35°11' E 139°47'4 1.9
2016-Sep-23 04:33N 35°13' E 139°43'0 0.4
2016-Sep-23 03:33N 35°13' E 139°43'6 5.5
2016-Sep-23 02:32N 35°10' E 139°49'5 4.7
2016-Sep-23 01:32N 35°13' E 139°44'3 2.7
2016-Sep-23 00:33N 35°12' E 139°47'3 2.5
2016-Sep-22 23:32N 35°13' E 139°44'2 0.1
2016-Sep-22 04:33N 35°12' E 139°47'1 1.1
2016-Sep-22 03:33N 35°12' E 139°45'2 0.5
2016-Sep-22 00:33N 35°11' E 139°47'3 2.6
2016-Sep-21 23:33N 35°13' E 139°45'2 1.8
2016-Sep-21 22:34N 35°12' E 139°47'1 0.1
2016-Sep-21 09:33N 35°12' E 139°45'2 1.6
2016-Sep-21 08:33N 35°11' E 139°47'2 0.7
2016-Sep-21 05:33N 35°10' E 139°49'6 2.8
2016-Sep-21 03:33N 35°13' E 139°43'6 5.6
2016-Sep-21 02:33N 35°10' E 139°49'11 1.2
2016-Sep-20 17:33N 35°19' E 139°40'0 0.0
2016-Sep-20 14:33N 35°19' E 139°40'0 0.0
2016-Sep-20 13:33N 35°19' E 139°40'0 0.0
2016-Sep-20 10:31N 35°19' E 139°40'0 0.0
2016-Sep-20 08:31N 35°19' E 139°40'0 0.0
2016-Sep-20 07:31N 35°19' E 139°40'0 0.0
2016-Sep-20 06:32N 35°19' E 139°40'6 1.5
2016-Sep-20 02:33N 35°13' E 139°43'3 1.0
2016-Sep-19 23:33N 35°12' E 139°46'2 0.1
2016-Sep-19 09:33N 35°11' E 139°48'1 0.4
2016-Sep-19 07:33N 35°10' E 139°49'5 5.1
2016-Sep-19 06:33N 35°13' E 139°44'4 1.4
2016-Sep-19 03:33N 35°11' E 139°48'4 4.2
2016-Sep-19 02:33N 35°13' E 139°44'0 0.1
2016-Sep-19 00:33N 35°13' E 139°43'2 0.1
2016-Sep-18 10:33N 35°13' E 139°46'3 2.5
2016-Sep-18 09:33N 35°11' E 139°48'4 0.6
2016-Sep-18 02:33N 35°13' E 139°44'4 4.3
2016-Sep-18 01:33N 35°11' E 139°48'4 4.4
2016-Sep-18 00:33N 35°13' E 139°44'1 0.5
2016-Sep-17 22:33N 35°13' E 139°45'2 2.4
2016-Sep-17 21:33N 35°11' E 139°47'2 0.2
2016-Sep-17 10:34N 35°13' E 139°46'3 2.7
2016-Sep-17 09:33N 35°11' E 139°48'4 4.3
2016-Sep-17 08:33N 35°13' E 139°44'5 5.1
2016-Sep-17 07:34N 35°10' E 139°49'2 0.9
2016-Sep-17 05:34N 35°11' E 139°47'3 3.0
2016-Sep-17 04:33N 35°13' E 139°44'0 0.1
2016-Sep-17 00:33N 35°13' E 139°44'4 0.3
2016-Sep-16 09:33N 35°11' E 139°48'1 0.5
2016-Sep-16 07:33N 35°10' E 139°49'2 0.6
2016-Sep-16 03:33N 35°12' E 139°47'3 3.4
2016-Sep-16 02:33N 35°13' E 139°43'1 0.3
2016-Sep-16 00:33N 35°13' E 139°44'1 0.4
2016-Sep-15 22:33N 35°13' E 139°44'2 2.5
2016-Sep-15 21:33N 35°12' E 139°47'  
Track history (hours):
 
Tides and Currents Weather Stations Pressure Air Temp Water Temp Dewpoint Dewpoint Depression Visibility Wind Speed Wind Dir Waves Ship Positions

Shirahamamaru

Last reported at 2016-Sep-25 11:10 UTC. Time now 2016-Sep-25 19:04 UTC.
Position N 35°13' E 139°43'.

Length 79 m; draft 3.2 m.

Type: Passenger vessel. MMSI: 431000239.

Date/timePositionNaut miles runAvg speedWind from/ knotsBaromVisibWave heightAir tempDewpointWater temp
2016-Sep-25 11:10N 35°13' E 139°43'6 9.5
2016-Sep-25 10:33N 35°10' E 139°49'4 3.5
2016-Sep-25 09:33N 35°13' E 139°46'1 0.4
2016-Sep-25 07:33N 35°13' E 139°45'1 0.5
2016-Sep-25 04:33N 35°12' E 139°47'1 0.2
2016-Sep-25 00:34N 35°12' E 139°47'1 0.5
2016-Sep-24 22:34N 35°12' E 139°46'2 1.5
2016-Sep-24 21:32N 35°13' E 139°44'5 0.4
2016-Sep-24 10:33N 35°10' E 139°49'3 3.3
2016-Sep-24 09:33N 35°12' E 139°46'0 0.0
2016-Sep-24 03:33N 35°12' E 139°46'1 1.1
2016-Sep-24 02:33N 35°11' E 139°47'2 2.1
2016-Sep-24 01:33N 35°13' E 139°45'2 2.2
2016-Sep-24 00:33N 35°12' E 139°47'1 0.1
2016-Sep-23 09:33N 35°12' E 139°46'1 0.4
2016-Sep-23 06:33N 35°11' E 139°47'4 1.9
2016-Sep-23 04:33N 35°13' E 139°43'0 0.4
2016-Sep-23 03:33N 35°13' E 139°43'6 5.5
2016-Sep-23 02:32N 35°10' E 139°49'5 4.7
2016-Sep-23 01:32N 35°13' E 139°44'3 2.7
2016-Sep-23 00:33N 35°12' E 139°47'3 2.5
2016-Sep-22 23:32N 35°13' E 139°44'2 0.1
2016-Sep-22 04:33N 35°12' E 139°47'1 1.1
2016-Sep-22 03:33N 35°12' E 139°45'2 0.5
2016-Sep-22 00:33N 35°11' E 139°47'3 2.6
2016-Sep-21 23:33N 35°13' E 139°45'2 1.8
2016-Sep-21 22:34N 35°12' E 139°47'1 0.1
2016-Sep-21 09:33N 35°12' E 139°45'2 1.6
2016-Sep-21 08:33N 35°11' E 139°47'2 0.7
2016-Sep-21 05:33N 35°10' E 139°49'6 2.8
2016-Sep-21 03:33N 35°13' E 139°43'6 5.6
2016-Sep-21 02:33N 35°10' E 139°49'11 1.2
2016-Sep-20 17:33N 35°19' E 139°40'0 0.0
2016-Sep-20 14:33N 35°19' E 139°40'0 0.0
2016-Sep-20 13:33N 35°19' E 139°40'0 0.0
2016-Sep-20 10:31N 35°19' E 139°40'0 0.0
2016-Sep-20 08:31N 35°19' E 139°40'0 0.0
2016-Sep-20 07:31N 35°19' E 139°40'0 0.0
2016-Sep-20 06:32N 35°19' E 139°40'6 1.5
2016-Sep-20 02:33N 35°13' E 139°43'3 1.0
2016-Sep-19 23:33N 35°12' E 139°46'2 0.1
2016-Sep-19 09:33N 35°11' E 139°48'1 0.4
2016-Sep-19 07:33N 35°10' E 139°49'5 5.1
2016-Sep-19 06:33N 35°13' E 139°44'4 1.4
2016-Sep-19 03:33N 35°11' E 139°48'4 4.2
2016-Sep-19 02:33N 35°13' E 139°44'0 0.1
2016-Sep-19 00:33N 35°13' E 139°43'2 0.1
2016-Sep-18 10:33N 35°13' E 139°46'3 2.5
2016-Sep-18 09:33N 35°11' E 139°48'4 0.6
2016-Sep-18 02:33N 35°13' E 139°44'4 4.3
2016-Sep-18 01:33N 35°11' E 139°48'4 4.4
2016-Sep-18 00:33N 35°13' E 139°44'1 0.5
2016-Sep-17 22:33N 35°13' E 139°45'2 2.4
2016-Sep-17 21:33N 35°11' E 139°47'2 0.2
2016-Sep-17 10:34N 35°13' E 139°46'3 2.7
2016-Sep-17 09:33N 35°11' E 139°48'4 4.3
2016-Sep-17 08:33N 35°13' E 139°44'5 5.1
2016-Sep-17 07:34N 35°10' E 139°49'2 0.9
2016-Sep-17 05:34N 35°11' E 139°47'3 3.0
2016-Sep-17 04:33N 35°13' E 139°44'0 0.1
2016-Sep-17 00:33N 35°13' E 139°44'4 0.3
2016-Sep-16 09:33N 35°11' E 139°48'1 0.5
2016-Sep-16 07:33N 35°10' E 139°49'2 0.6
2016-Sep-16 03:33N 35°12' E 139°47'3 3.4
2016-Sep-16 02:33N 35°13' E 139°43'1 0.3
2016-Sep-16 00:33N 35°13' E 139°44'1 0.4
2016-Sep-15 22:33N 35°13' E 139°44'2 2.5
2016-Sep-15 21:33N 35°12' E 139°47'  

Dump ship's entire track history